createdAt,value
2023-07-03T00:00:21.990Z,4.10
2023-07-03T00:02:54.222Z,4.85
2023-07-03T00:05:24.753Z,4.95
2023-07-03T00:07:52.857Z,7.80
2023-07-03T00:10:22.537Z,3.47
2023-07-03T00:12:50.867Z,3.78
2023-07-03T00:15:18.318Z,6.63
2023-07-03T00:17:45.972Z,4.40
2023-07-03T00:20:15.605Z,4.72
2023-07-03T00:22:45.394Z,8.32
2023-07-03T00:25:12.784Z,4.83
2023-07-03T00:27:40.120Z,5.28
2023-07-03T00:30:10.171Z,3.30
2023-07-03T00:32:38.110Z,3.65
2023-07-03T00:35:07.980Z,4.00
2023-07-03T00:37:35.916Z,3.00
2023-07-03T00:40:04.416Z,4.93
2023-07-03T00:42:32.929Z,3.55
2023-07-03T00:45:00.501Z,3.55
2023-07-03T00:47:28.445Z,6.47
2023-07-03T00:49:55.762Z,3.05
2023-07-03T00:52:23.439Z,9.52
2023-07-03T00:54:51.195Z,4.32
2023-07-03T00:57:18.981Z,4.20
2023-07-03T00:59:46.524Z,4.95
2023-07-03T01:02:42.593Z,3.80
2023-07-03T01:05:14.697Z,3.55
2023-07-03T01:07:43.607Z,2.88
2023-07-03T01:10:16.963Z,3.92
2023-07-03T01:12:48.822Z,4.68
2023-07-03T01:15:26.282Z,3.63
2023-07-03T01:17:57.155Z,2.92
2023-07-03T01:20:30.483Z,6.30
2023-07-03T01:23:32.535Z,2.83
2023-07-03T01:26:04.606Z,3.50
2023-07-03T01:28:34.735Z,3.97
2023-07-03T01:31:08.922Z,6.90
2023-07-03T01:33:41.653Z,4.85
2023-07-03T01:36:13.469Z,3.60
2023-07-03T01:38:45.384Z,8.57
2023-07-03T01:41:16.211Z,3.15
2023-07-03T01:43:46.580Z,4.53
2023-07-03T01:46:15.438Z,3.47
2023-07-03T01:48:42.902Z,5.72
2023-07-03T01:51:17.520Z,4.20
2023-07-03T01:54:09.825Z,5.75
2023-07-03T01:56:42.763Z,4.00
2023-07-03T01:59:19.084Z,3.85
2023-07-03T02:02:11.087Z,3.38
2023-07-03T02:04:43.189Z,5.07
2023-07-03T02:07:13.103Z,5.53
2023-07-03T02:09:41.353Z,4.78
2023-07-03T02:12:11.186Z,4.68
2023-07-03T02:14:39.749Z,5.45
2023-07-03T02:17:08.154Z,5.05
2023-07-03T02:19:36.304Z,3.78
2023-07-03T02:22:04.424Z,7.03
2023-07-03T02:24:31.833Z,5.70
2023-07-03T02:27:00.642Z,4.90
2023-07-03T02:29:27.987Z,4.68
2023-07-03T02:31:55.316Z,3.42
2023-07-03T02:34:22.968Z,4.30
2023-07-03T02:36:50.697Z,5.82
2023-07-03T02:39:18.178Z,4.57
2023-07-03T02:41:45.623Z,7.45
2023-07-03T02:44:13.037Z,7.47
2023-07-03T02:46:43.165Z,4.30
2023-07-03T02:49:12.436Z,5.43
2023-07-03T02:54:11.870Z,4.03
2023-07-03T02:56:40.372Z,3.38
2023-07-03T02:59:07.866Z,3.45
2023-07-03T03:01:37.567Z,5.57
2023-07-03T03:04:06.853Z,6.57
2023-07-03T03:06:34.522Z,3.70
2023-07-03T03:09:01.884Z,6.22
2023-07-03T03:11:32.378Z,4.95
2023-07-03T03:14:00.470Z,7.38
2023-07-03T03:16:28.057Z,4.30
2023-07-03T03:18:55.696Z,5.57
2023-07-03T03:21:23.005Z,13.48
2023-07-03T03:23:50.623Z,8.27
2023-07-03T03:26:18.184Z,6.82
2023-07-03T03:28:45.543Z,5.05
2023-07-03T03:31:12.966Z,6.22
2023-07-03T03:33:49.045Z,4.78
2023-07-03T03:36:17.055Z,4.03
2023-07-03T03:38:44.415Z,5.32
2023-07-03T03:41:11.824Z,9.55
2023-07-03T03:43:41.447Z,6.00
2023-07-03T03:46:09.543Z,7.38
2023-07-03T03:48:38.529Z,4.47
2023-07-03T03:51:08.680Z,5.78
2023-07-03T03:53:36.472Z,4.18
2023-07-03T03:56:04.253Z,5.95
2023-07-03T03:58:33.867Z,6.53
2023-07-03T04:01:02.269Z,5.80
2023-07-03T04:03:29.914Z,5.25
2023-07-03T04:05:57.379Z,5.95
2023-07-03T04:08:24.744Z,5.00
2023-07-03T04:10:52.034Z,3.80
2023-07-03T04:13:19.400Z,6.88
2023-07-03T04:16:03.578Z,4.55
2023-07-03T04:18:33.040Z,6.60
2023-07-03T04:21:00.796Z,4.03
2023-07-03T04:23:29.110Z,5.45
2023-07-03T04:25:56.891Z,2.85
2023-07-03T04:28:24.816Z,13.88
2023-07-03T04:30:52.414Z,3.80
2023-07-03T04:33:19.671Z,3.35
2023-07-03T04:35:49.217Z,7.20
2023-07-03T04:38:20.457Z,6.03
2023-07-03T04:40:48.583Z,3.08
2023-07-03T04:43:17.379Z,6.07
2023-07-03T04:45:51.862Z,7.32
2023-07-03T04:48:20.281Z,3.97
2023-07-03T04:50:50.095Z,5.82
2023-07-03T04:53:22.488Z,3.03
2023-07-03T04:55:51.845Z,5.68
2023-07-03T04:58:19.943Z,4.80
2023-07-03T05:00:48.371Z,4.05
2023-07-03T05:03:16.694Z,6.28
2023-07-03T05:05:44.336Z,5.43
2023-07-03T05:08:11.785Z,5.28
2023-07-03T05:10:39.176Z,6.28
2023-07-03T05:13:06.692Z,3.67
2023-07-03T05:15:34.158Z,2.47
2023-07-03T05:18:02.330Z,4.68
2023-07-03T05:20:31.073Z,4.13
2023-07-03T05:22:59.451Z,4.40
2023-07-03T05:25:26.963Z,5.55
2023-07-03T05:27:54.355Z,5.15
2023-07-03T05:30:21.873Z,4.95
2023-07-03T05:32:49.314Z,4.30
2023-07-03T05:35:16.867Z,3.10
2023-07-03T05:37:44.255Z,3.58
2023-07-03T05:40:13.636Z,4.68
2023-07-03T05:42:40.933Z,3.15
2023-07-03T05:45:09.346Z,4.72
2023-07-03T05:47:36.985Z,4.40
2023-07-03T05:50:04.986Z,5.25
2023-07-03T05:52:34.845Z,12.88
2023-07-03T05:57:29.690Z,4.57
2023-07-03T05:59:57.040Z,2.75
2023-07-03T06:02:24.588Z,4.25
2023-07-03T06:04:52.472Z,3.83
2023-07-03T06:07:19.738Z,4.00
2023-07-03T06:09:47.509Z,6.13
2023-07-03T06:12:15.117Z,5.45
2023-07-03T06:14:42.529Z,3.83
2023-07-03T06:17:09.845Z,5.53
2023-07-03T06:19:37.356Z,3.45
2023-07-03T06:22:05.104Z,7.57
2023-07-03T06:24:33.569Z,7.05
2023-07-03T06:27:01.417Z,4.75
2023-07-03T06:29:28.695Z,4.07
2023-07-03T06:31:55.947Z,5.88
2023-07-03T06:34:23.178Z,5.88
2023-07-03T06:36:50.630Z,4.32
2023-07-03T06:39:18.104Z,12.00
2023-07-03T06:41:45.531Z,6.22
2023-07-03T06:44:17.711Z,5.45
2023-07-03T06:46:45.902Z,8.32
2023-07-03T06:49:14.799Z,7.70
2023-07-03T06:51:42.195Z,5.32
2023-07-03T06:54:09.554Z,5.95
2023-07-03T06:56:36.900Z,7.35
2023-07-03T06:59:04.173Z,9.85
2023-07-03T07:01:31.679Z,10.23
2023-07-03T07:03:59.376Z,10.70
2023-07-03T07:06:31.493Z,8.52
2023-07-03T07:09:01.140Z,10.15
2023-07-03T07:11:34.549Z,11.93
2023-07-03T07:14:05.565Z,10.27
2023-07-03T07:16:37.886Z,12.45
2023-07-03T07:19:08.842Z,9.48
2023-07-03T07:21:42.840Z,9.20
2023-07-03T07:24:23.626Z,15.60
2023-07-03T07:26:56.506Z,16.20
2023-07-03T07:29:26.312Z,12.20
2023-07-03T07:31:58.283Z,13.50
2023-07-03T07:34:26.364Z,13.90
2023-07-03T07:36:54.022Z,15.75
2023-07-03T07:39:22.370Z,13.70
2023-07-03T07:41:52.541Z,14.40
2023-07-03T07:44:20.424Z,14.02
2023-07-03T07:46:47.830Z,13.95
2023-07-03T07:49:15.551Z,17.38
2023-07-03T07:51:43.096Z,18.50
2023-07-03T07:54:10.475Z,13.07
2023-07-03T07:56:37.830Z,13.48
2023-07-03T07:59:05.407Z,12.90
2023-07-03T08:01:33.014Z,14.60
2023-07-03T08:04:00.535Z,11.13
2023-07-03T08:06:28.947Z,14.23
2023-07-03T08:08:56.444Z,17.00
2023-07-03T08:11:25.816Z,21.27
2023-07-03T08:13:53.297Z,13.13
2023-07-03T08:16:20.566Z,13.68
2023-07-03T08:18:49.836Z,15.77
2023-07-03T08:21:17.749Z,15.07
2023-07-03T08:23:45.209Z,17.88
2023-07-03T08:26:20.462Z,16.08
2023-07-03T08:28:48.129Z,13.63
2023-07-03T08:31:15.787Z,15.85
2023-07-03T08:33:43.326Z,14.70
2023-07-03T08:38:41.033Z,14.25
2023-07-03T08:41:14.640Z,18.70
2023-07-03T08:43:48.361Z,14.45
2023-07-03T08:46:22.979Z,14.90
2023-07-03T08:48:54.967Z,14.18
2023-07-03T08:51:26.769Z,16.52
2023-07-03T08:54:01.134Z,15.27
2023-07-03T08:56:33.190Z,15.80
2023-07-03T08:59:02.581Z,14.35
2023-07-03T09:01:46.515Z,15.13
2023-07-03T09:04:41.905Z,14.02
2023-07-03T09:07:25.237Z,15.68
2023-07-03T09:10:18.874Z,15.52
2023-07-03T09:13:04.609Z,13.18
2023-07-03T09:15:54.127Z,14.82
2023-07-03T09:18:43.559Z,15.38
2023-07-03T09:23:57.834Z,18.00
2023-07-03T09:26:37.605Z,11.32
2023-07-03T09:29:07.725Z,18.42
2023-07-03T09:31:35.210Z,15.30
2023-07-03T09:34:03.258Z,13.90
2023-07-03T09:36:37.784Z,13.38
2023-07-03T09:39:19.136Z,14.23
2023-07-03T09:41:47.896Z,17.42
2023-07-03T09:44:21.516Z,13.48
2023-07-03T09:46:50.357Z,15.63
2023-07-03T09:49:30.020Z,13.43
2023-07-03T09:51:59.685Z,13.48
2023-07-03T09:54:33.056Z,15.75
2023-07-03T09:57:05.686Z,12.57
2023-07-03T09:59:33.035Z,17.65
2023-07-03T10:07:09.179Z,17.00
2023-07-03T10:12:38.481Z,14.63
2023-07-03T10:15:19.616Z,15.38
2023-07-03T10:18:19.094Z,17.20
2023-07-03T10:23:29.215Z,12.65
2023-07-03T10:26:11.667Z,13.52
2023-07-03T10:28:52.903Z,13.27
2023-07-03T10:31:30.059Z,17.48
2023-07-03T10:34:08.838Z,13.57
2023-07-03T10:36:38.428Z,13.10
2023-07-03T10:41:49.197Z,15.57
2023-07-03T10:44:37.788Z,16.58
2023-07-03T10:47:26.868Z,15.38
2023-07-03T10:49:54.443Z,18.15
2023-07-03T10:52:57.532Z,17.92
2023-07-03T10:55:58.968Z,14.73
2023-07-03T10:59:04.606Z,10.23
2023-07-03T11:01:49.243Z,11.73
2023-07-03T11:04:40.202Z,11.05
2023-07-03T11:07:30.030Z,17.30
2023-07-03T11:13:16.177Z,15.50
2023-07-03T11:15:59.297Z,13.30
2023-07-03T11:24:54.887Z,16.20
2023-07-03T11:30:27.227Z,12.05
2023-07-03T11:32:58.550Z,20.02
2023-07-03T11:41:03.175Z,13.25
2023-07-03T11:43:30.978Z,18.10
2023-07-03T11:45:58.191Z,13.27
2023-07-03T11:48:32.286Z,15.65
2023-07-03T11:51:05.665Z,18.48
2023-07-03T11:53:47.560Z,19.02
2023-07-03T11:56:37.708Z,15.43
2023-07-03T11:59:08.458Z,14.90
2023-07-03T12:01:37.765Z,17.27
2023-07-03T12:04:11.243Z,17.90
2023-07-03T12:06:41.584Z,19.67
2023-07-03T12:09:33.374Z,22.08
2023-07-03T12:12:09.248Z,14.95
2023-07-03T12:15:08.973Z,20.65
2023-07-03T12:17:38.557Z,13.60
2023-07-03T12:20:10.701Z,13.65
2023-07-03T12:22:53.168Z,12.60
2023-07-03T12:25:27.413Z,16.65
2023-07-03T12:28:08.625Z,14.95
2023-07-03T12:30:36.327Z,14.20
2023-07-03T12:33:04.029Z,12.45
2023-07-03T12:35:45.340Z,17.45
2023-07-03T12:38:14.698Z,13.88
2023-07-03T12:40:44.100Z,15.07
2023-07-03T12:43:16.844Z,17.50
2023-07-03T12:45:53.518Z,14.32
2023-07-03T12:48:23.953Z,13.75
2023-07-03T12:50:55.460Z,13.77
2023-07-03T12:53:24.989Z,13.18
2023-07-03T12:56:02.133Z,23.40
2023-07-03T12:58:29.671Z,15.20
2023-07-03T13:01:08.219Z,15.95
2023-07-03T13:03:43.745Z,13.43
2023-07-03T13:06:29.718Z,19.15
2023-07-03T13:08:58.850Z,14.98
2023-07-03T13:11:45.605Z,16.20
2023-07-03T13:14:24.194Z,14.35
2023-07-03T13:16:56.605Z,16.35
2023-07-03T13:19:36.574Z,14.20
2023-07-03T13:22:09.759Z,16.48
2023-07-03T13:24:47.440Z,14.00
2023-07-03T13:27:27.073Z,14.30
2023-07-03T13:30:16.079Z,15.70
2023-07-03T13:33:01.989Z,16.83
2023-07-03T13:35:44.140Z,15.70
2023-07-03T13:38:24.151Z,11.90
2023-07-03T13:40:54.102Z,17.60
2023-07-03T13:43:32.319Z,14.15
2023-07-03T13:46:00.454Z,15.77
2023-07-03T13:48:28.847Z,15.02
2023-07-03T13:50:57.095Z,15.90
2023-07-03T13:53:26.612Z,13.50
2023-07-03T13:55:55.237Z,13.98
2023-07-03T13:58:22.791Z,13.98
2023-07-03T14:00:50.482Z,12.05
2023-07-03T14:03:18.011Z,17.23
2023-07-03T14:05:45.529Z,14.80
2023-07-03T14:08:12.798Z,15.77
2023-07-03T14:10:40.346Z,14.98
2023-07-03T14:13:08.074Z,15.90
2023-07-03T14:15:38.629Z,14.70
2023-07-03T14:18:06.337Z,16.17
2023-07-03T14:20:33.683Z,14.73
2023-07-03T14:23:01.145Z,13.60
2023-07-03T14:25:29.185Z,17.08
2023-07-03T14:27:56.841Z,13.27
2023-07-03T14:30:24.154Z,13.23
2023-07-03T14:32:55.916Z,15.13
2023-07-03T14:35:25.598Z,16.48
2023-07-03T14:37:53.852Z,16.08
2023-07-03T14:40:21.670Z,17.13
2023-07-03T14:42:50.092Z,16.73
2023-07-03T14:45:18.333Z,18.95
2023-07-03T14:47:45.734Z,16.08
2023-07-03T14:50:13.613Z,14.38
2023-07-03T14:52:47.618Z,21.35
2023-07-03T14:55:16.985Z,13.00
2023-07-03T14:57:46.313Z,15.63
2023-07-03T15:00:14.840Z,13.85
2023-07-03T15:02:46.849Z,11.93
2023-07-03T15:05:14.627Z,12.77
2023-07-03T15:07:43.215Z,14.48
2023-07-03T15:10:12.476Z,12.00
2023-07-03T15:12:40.935Z,12.23
2023-07-03T15:15:09.724Z,15.13
2023-07-03T15:17:37.335Z,13.25
2023-07-03T15:20:06.586Z,17.95
2023-07-03T15:22:33.949Z,14.20
2023-07-03T15:25:01.194Z,13.77
2023-07-03T15:27:28.638Z,13.77
2023-07-03T15:29:55.999Z,15.13
2023-07-03T15:32:23.454Z,18.70
2023-07-03T15:34:55.156Z,13.40
2023-07-03T15:37:23.134Z,15.88
2023-07-03T15:39:50.498Z,13.95
2023-07-03T15:42:17.792Z,11.45
2023-07-03T15:44:54.649Z,13.63
2023-07-03T15:47:22.115Z,14.02
2023-07-03T15:49:53.760Z,15.32
2023-07-03T15:52:21.153Z,12.60
2023-07-03T15:54:52.865Z,17.25
2023-07-03T15:57:22.051Z,15.90
2023-07-03T15:59:49.533Z,15.67
2023-07-03T16:02:17.036Z,17.30
2023-07-03T16:04:44.638Z,16.60
2023-07-03T16:07:12.014Z,15.35
2023-07-03T16:09:39.548Z,13.55
2023-07-03T16:12:07.223Z,15.25
2023-07-03T16:14:34.585Z,15.65
2023-07-03T16:17:04.884Z,12.27
2023-07-03T16:19:32.211Z,14.50
2023-07-03T16:21:59.496Z,12.85
2023-07-03T16:24:27.016Z,15.57
2023-07-03T16:26:54.297Z,14.27
2023-07-03T16:29:21.595Z,19.23
2023-07-03T16:31:49.175Z,14.45
2023-07-03T16:34:16.597Z,12.32
2023-07-03T16:36:43.866Z,19.20
2023-07-03T16:39:11.374Z,19.15
2023-07-03T16:41:40.087Z,14.93
2023-07-03T16:44:07.856Z,16.75
2023-07-03T16:46:37.826Z,17.23
2023-07-03T16:49:07.187Z,13.93
2023-07-03T16:51:34.582Z,16.02
2023-07-03T16:54:02.572Z,14.93
2023-07-03T16:56:30.013Z,18.85
2023-07-03T16:58:59.311Z,12.68
2023-07-03T17:01:29.941Z,20.90
2023-07-03T17:03:57.909Z,12.93
2023-07-03T17:06:32.563Z,15.90
2023-07-03T17:09:02.244Z,14.18
2023-07-03T17:11:30.650Z,14.13
2023-07-03T17:14:01.167Z,14.87
2023-07-03T17:16:29.898Z,12.82
2023-07-03T17:18:57.669Z,17.48
2023-07-03T17:21:25.022Z,20.52
2023-07-03T17:24:02.839Z,17.92
2023-07-03T17:26:32.677Z,15.90
2023-07-03T17:29:00.510Z,23.08
2023-07-03T17:31:27.833Z,17.60
2023-07-03T17:33:56.314Z,14.95
2023-07-03T17:36:24.507Z,13.77
2023-07-03T17:38:52.759Z,21.38
2023-07-03T17:41:20.653Z,13.60
2023-07-03T17:43:48.785Z,19.75
2023-07-03T17:46:19.266Z,14.80
2023-07-03T17:48:46.793Z,16.40
2023-07-03T17:51:14.171Z,12.77
2023-07-03T17:53:41.806Z,16.50
2023-07-03T17:56:09.175Z,25.63
2023-07-03T17:58:36.540Z,16.13
2023-07-03T18:01:04.502Z,16.98
2023-07-03T18:03:34.013Z,14.23
2023-07-03T18:06:03.038Z,18.83
2023-07-03T18:08:30.468Z,11.98
2023-07-03T18:10:57.846Z,15.98
2023-07-03T18:13:25.330Z,14.40
2023-07-03T18:15:52.852Z,16.40
2023-07-03T18:18:21.085Z,14.18
2023-07-03T18:20:48.932Z,19.00
2023-07-03T18:23:16.682Z,19.52
2023-07-03T18:25:43.966Z,16.20
2023-07-03T18:28:11.521Z,15.70
2023-07-03T18:30:38.881Z,16.52
2023-07-03T18:33:06.541Z,15.25
2023-07-03T18:35:37.427Z,14.30
2023-07-03T18:38:05.713Z,13.77
2023-07-03T18:40:33.206Z,13.27
2023-07-03T18:43:00.794Z,14.82
2023-07-03T18:45:28.165Z,16.92
2023-07-03T18:47:55.479Z,18.38
2023-07-03T18:50:23.004Z,17.75
2023-07-03T18:52:50.687Z,15.00
2023-07-03T18:55:19.355Z,17.05
2023-07-03T18:57:47.375Z,19.88
2023-07-03T19:00:16.253Z,13.65
2023-07-03T19:02:46.385Z,17.23
2023-07-03T19:05:17.392Z,13.05
2023-07-03T19:07:45.898Z,16.40
2023-07-03T19:10:18.496Z,24.08
2023-07-03T19:12:47.519Z,15.98
2023-07-03T19:15:15.052Z,20.95
2023-07-03T19:17:42.598Z,15.55
2023-07-03T19:20:12.207Z,15.57
2023-07-03T19:22:39.647Z,25.58
2023-07-03T19:25:08.381Z,16.52
2023-07-03T19:27:35.777Z,19.63
2023-07-03T19:30:03.769Z,14.13
2023-07-03T19:32:31.170Z,15.18
2023-07-03T19:34:58.548Z,17.65
2023-07-03T19:37:25.801Z,14.68
2023-07-03T19:39:53.025Z,14.85
2023-07-03T19:42:20.277Z,15.20
2023-07-03T19:44:47.647Z,21.02
2023-07-03T19:47:15.126Z,18.00
2023-07-03T19:49:42.943Z,15.65
2023-07-03T19:52:12.098Z,14.73
2023-07-03T19:54:39.776Z,15.40
2023-07-03T19:57:07.217Z,17.02
2023-07-03T19:59:34.636Z,14.80
2023-07-03T20:02:02.376Z,16.45
2023-07-03T20:04:30.760Z,18.10
2023-07-03T20:07:00.014Z,18.67
2023-07-03T20:09:27.483Z,22.48
2023-07-03T20:11:54.856Z,18.75
2023-07-03T20:14:22.703Z,20.50
2023-07-03T20:16:50.186Z,16.52
2023-07-03T20:19:17.844Z,20.10
2023-07-03T20:21:45.311Z,15.65
2023-07-03T20:24:14.581Z,17.88
2023-07-03T20:26:41.957Z,16.27
2023-07-03T20:29:09.375Z,16.00
2023-07-03T20:31:36.769Z,15.27
2023-07-03T20:34:04.196Z,18.42
2023-07-03T20:36:31.690Z,20.35
2023-07-03T20:38:59.133Z,16.45
2023-07-03T20:41:26.505Z,18.33
2023-07-03T20:43:54.053Z,19.00
2023-07-03T20:46:22.526Z,18.90
2023-07-03T20:48:56.814Z,18.60
2023-07-03T20:51:28.090Z,18.80
2023-07-03T20:53:58.668Z,17.17
2023-07-03T20:56:38.382Z,16.17
2023-07-03T20:59:06.824Z,18.77
2023-07-03T21:01:37.864Z,16.63
2023-07-03T21:04:08.005Z,22.85
2023-07-03T21:06:38.338Z,16.15
2023-07-03T21:09:07.444Z,15.00
2023-07-03T21:11:37.001Z,15.57
2023-07-03T21:14:08.049Z,15.15
2023-07-03T21:16:36.820Z,19.42
2023-07-03T21:19:07.112Z,18.77
2023-07-03T21:21:34.425Z,20.80
2023-07-03T21:24:05.521Z,18.25
2023-07-03T21:26:33.278Z,15.82
2023-07-03T21:29:00.686Z,19.73
2023-07-03T21:31:32.971Z,17.65
2023-07-03T21:34:00.377Z,22.33
2023-07-03T21:36:30.799Z,18.45
2023-07-03T21:41:34.237Z,19.55
2023-07-03T21:44:10.989Z,14.32
2023-07-03T21:46:38.587Z,16.90
2023-07-03T21:49:06.284Z,14.00
2023-07-03T21:51:33.718Z,17.73
2023-07-03T21:54:01.347Z,19.88
2023-07-03T21:56:31.646Z,17.55
2023-07-03T21:59:03.304Z,18.27
2023-07-03T22:01:39.469Z,19.00
2023-07-03T22:04:08.842Z,19.13
2023-07-03T22:06:36.413Z,16.73
2023-07-03T22:09:04.378Z,12.88
2023-07-03T22:11:31.985Z,17.75
2023-07-03T22:13:59.935Z,14.60
2023-07-03T22:16:27.536Z,15.07
2023-07-03T22:18:54.969Z,17.25
2023-07-03T22:21:22.255Z,16.98
2023-07-03T22:23:51.548Z,20.80
2023-07-03T22:26:20.389Z,17.40
2023-07-03T22:28:48.500Z,18.02
2023-07-03T22:31:17.137Z,18.48
2023-07-03T22:33:44.612Z,17.45
2023-07-03T22:36:14.599Z,14.23
2023-07-03T22:38:42.080Z,17.92
2023-07-03T22:41:11.518Z,15.40
2023-07-03T22:43:40.472Z,16.00
2023-07-03T22:46:09.687Z,23.23
2023-07-03T22:48:44.820Z,15.85
2023-07-03T22:51:13.917Z,17.67
2023-07-03T22:53:41.247Z,14.18
2023-07-03T22:56:08.783Z,21.52
2023-07-03T22:58:36.356Z,17.08
2023-07-03T23:01:10.263Z,19.13
2023-07-03T23:03:40.076Z,16.23
2023-07-03T23:06:08.520Z,19.85
2023-07-03T23:08:38.159Z,15.05
2023-07-03T23:11:06.369Z,15.75
2023-07-03T23:13:33.890Z,15.38
2023-07-03T23:16:10.467Z,16.38
2023-07-03T23:18:41.258Z,16.55
2023-07-03T23:21:12.855Z,16.02
2023-07-03T23:23:41.088Z,15.90
2023-07-03T23:26:14.401Z,19.10
2023-07-03T23:28:44.759Z,14.85
2023-07-03T23:33:43.002Z,18.90
2023-07-03T23:36:14.190Z,14.40
2023-07-03T23:38:45.556Z,17.25
2023-07-03T23:41:13.298Z,16.45
2023-07-03T23:43:41.159Z,17.60
2023-07-03T23:46:10.891Z,18.95
2023-07-03T23:48:40.407Z,17.75
2023-07-03T23:51:11.304Z,15.10
2023-07-03T23:53:44.018Z,15.73
2023-07-03T23:56:13.747Z,21.83
2023-07-03T23:58:43.734Z,17.23
